createdAt,value
2022-08-27T00:01:22.044Z,22.11
2022-08-27T00:03:49.233Z,21.96
2022-08-27T00:06:18.478Z,21.85
2022-08-27T00:08:47.734Z,21.95
2022-08-27T00:11:15.184Z,21.91
2022-08-27T00:13:42.216Z,21.91
2022-08-27T00:16:11.496Z,21.86
2022-08-27T00:18:39.217Z,21.75
2022-08-27T00:21:06.999Z,21.76
2022-08-27T00:23:34.866Z,21.75
2022-08-27T00:26:02.841Z,21.80
2022-08-27T00:28:30.699Z,21.70
2022-08-27T00:30:57.693Z,21.55
2022-08-27T00:33:25.144Z,21.72
2022-08-27T00:35:52.485Z,21.69
2022-08-27T00:38:21.769Z,21.55
2022-08-27T00:40:49.581Z,21.59
2022-08-27T00:43:28.865Z,21.47
2022-08-27T00:46:02.383Z,21.50
2022-08-27T00:48:35.144Z,21.60
2022-08-27T00:51:03.055Z,21.41
2022-08-27T00:53:33.316Z,21.34
2022-08-27T00:56:10.338Z,21.25
2022-08-27T00:58:49.194Z,21.16
2022-08-27T01:01:22.610Z,21.24
2022-08-27T01:03:52.543Z,21.15
2022-08-27T01:06:22.055Z,21.07
2022-08-27T01:08:55.829Z,21.10
2022-08-27T01:11:25.155Z,21.07
2022-08-27T01:14:00.479Z,21.11
2022-08-27T01:16:37.175Z,21.05
2022-08-27T01:19:16.187Z,20.97
2022-08-27T01:21:52.672Z,20.96
2022-08-27T01:24:34.370Z,20.97
2022-08-27T01:27:04.249Z,20.92
2022-08-27T01:29:33.007Z,21.01
2022-08-27T01:32:08.165Z,20.98
2022-08-27T01:34:35.231Z,20.99
2022-08-27T01:37:02.283Z,20.99
2022-08-27T01:39:29.574Z,21.15
2022-08-27T01:42:02.894Z,21.03
2022-08-27T01:44:29.719Z,21.02
2022-08-27T01:46:56.562Z,20.87
2022-08-27T01:49:23.608Z,20.79
2022-08-27T01:51:50.453Z,20.73
2022-08-27T01:54:17.255Z,20.76
2022-08-27T01:56:44.240Z,20.76
2022-08-27T01:59:11.923Z,20.85
2022-08-27T02:01:39.426Z,20.75
2022-08-27T02:04:06.391Z,20.71
2022-08-27T02:06:33.619Z,20.79
2022-08-27T02:09:00.595Z,20.78
2022-08-27T02:11:27.611Z,20.72
2022-08-27T02:13:54.588Z,20.69
2022-08-27T02:16:22.224Z,20.64
2022-08-27T02:18:49.313Z,20.56
2022-08-27T02:21:17.960Z,20.58
2022-08-27T02:23:45.452Z,20.60
2022-08-27T02:26:13.653Z,20.60
2022-08-27T02:28:40.451Z,20.48
2022-08-27T02:31:07.606Z,20.39
2022-08-27T02:33:35.305Z,20.42
2022-08-27T02:36:03.222Z,20.40
2022-08-27T02:38:30.289Z,20.42
2022-08-27T02:40:57.843Z,20.38
2022-08-27T02:43:25.365Z,20.30
2022-08-27T02:45:52.716Z,20.40
2022-08-27T02:48:20.154Z,20.34
2022-08-27T02:50:47.310Z,20.30
2022-08-27T02:53:14.539Z,20.34
2022-08-27T02:55:44.315Z,20.34
2022-08-27T02:58:12.848Z,20.22
2022-08-27T03:00:39.632Z,20.21
2022-08-27T03:03:07.598Z,20.14
2022-08-27T03:05:34.471Z,20.29
2022-08-27T03:08:01.953Z,20.32
2022-08-27T03:10:29.862Z,20.31
2022-08-27T03:12:57.604Z,20.39
2022-08-27T03:15:24.693Z,20.31
2022-08-27T03:18:10.462Z,20.16
2022-08-27T03:20:40.923Z,20.12
2022-08-27T03:23:09.825Z,20.12
2022-08-27T03:25:38.116Z,19.99
2022-08-27T03:28:05.281Z,20.01
2022-08-27T03:30:38.570Z,19.96
2022-08-27T03:33:05.315Z,19.95
2022-08-27T03:35:32.551Z,20.01
2022-08-27T03:38:02.742Z,20.11
2022-08-27T03:40:29.771Z,20.04
2022-08-27T03:42:56.614Z,20.04
2022-08-27T03:45:23.719Z,19.93
2022-08-27T03:47:51.219Z,19.91
2022-08-27T03:50:18.119Z,19.89
2022-08-27T03:52:45.172Z,19.89
2022-08-27T03:55:14.441Z,19.82
2022-08-27T03:57:41.234Z,19.83
2022-08-27T04:00:14.044Z,19.87
2022-08-27T04:02:42.894Z,19.91
2022-08-27T04:05:12.147Z,19.91
2022-08-27T04:07:40.896Z,19.94
2022-08-27T04:10:09.568Z,19.90
2022-08-27T04:12:37.639Z,19.76
2022-08-27T04:15:05.651Z,19.86
2022-08-27T04:17:32.497Z,19.84
2022-08-27T04:20:08.735Z,19.84
2022-08-27T04:22:48.336Z,19.77
2022-08-27T04:25:15.357Z,19.78
2022-08-27T04:27:43.360Z,19.79
2022-08-27T04:30:10.677Z,19.90
2022-08-27T04:32:38.019Z,19.93
2022-08-27T04:35:05.654Z,20.04
2022-08-27T04:37:33.223Z,19.99
2022-08-27T04:40:00.698Z,20.23
2022-08-27T04:42:27.546Z,20.13
2022-08-27T04:44:54.338Z,20.14
2022-08-27T04:47:21.358Z,20.12
2022-08-27T04:49:48.169Z,20.15
2022-08-27T04:52:15.859Z,20.12
2022-08-27T04:54:43.701Z,20.19
2022-08-27T04:57:11.207Z,20.26
2022-08-27T04:59:38.982Z,20.20
2022-08-27T05:02:10.938Z,20.20
2022-08-27T05:04:40.175Z,20.32
2022-08-27T05:07:08.931Z,20.45
2022-08-27T05:09:35.951Z,20.48
2022-08-27T05:12:03.421Z,20.55
2022-08-27T05:14:32.303Z,20.59
2022-08-27T05:16:59.820Z,20.69
2022-08-27T05:19:27.009Z,20.65
2022-08-27T05:21:54.365Z,20.68
2022-08-27T05:24:22.096Z,20.75
2022-08-27T05:26:49.613Z,20.87
2022-08-27T05:29:17.421Z,20.98
2022-08-27T05:31:44.753Z,21.12
2022-08-27T05:34:14.896Z,21.21
2022-08-27T05:36:48.675Z,21.27
2022-08-27T05:39:17.177Z,21.32
2022-08-27T05:41:44.023Z,21.46
2022-08-27T05:44:37.210Z,21.51
2022-08-27T05:46:58.219Z,21.59
2022-08-27T05:49:25.262Z,21.68
2022-08-27T05:51:52.063Z,21.82
2022-08-27T05:54:21.768Z,21.92
2022-08-27T05:56:50.225Z,22.03
2022-08-27T05:59:36.146Z,22.05
2022-08-27T06:02:06.095Z,22.11
2022-08-27T06:04:33.220Z,22.12
2022-08-27T06:07:00.038Z,22.24
2022-08-27T06:09:29.342Z,22.39
2022-08-27T06:11:58.718Z,22.47
2022-08-27T06:14:26.239Z,22.58
2022-08-27T06:16:53.355Z,22.68
2022-08-27T06:19:20.474Z,22.76
2022-08-27T06:22:00.326Z,22.79
2022-08-27T06:24:36.036Z,22.93
2022-08-27T06:27:03.350Z,23.04
2022-08-27T06:29:30.100Z,23.22
2022-08-27T06:31:57.138Z,23.29
2022-08-27T06:34:24.007Z,23.42
2022-08-27T06:36:50.779Z,23.58
2022-08-27T06:39:17.813Z,23.73
2022-08-27T06:41:45.132Z,23.90
2022-08-27T06:44:13.464Z,23.96
2022-08-27T06:46:41.519Z,23.89
2022-08-27T06:49:08.758Z,23.94
2022-08-27T06:51:37.699Z,23.90
2022-08-27T06:54:08.727Z,23.98
2022-08-27T06:56:36.283Z,24.01
2022-08-27T06:59:11.814Z,24.12
2022-08-27T07:01:42.668Z,24.28
2022-08-27T07:04:12.891Z,24.42
2022-08-27T07:06:40.955Z,24.61
2022-08-27T07:09:08.833Z,24.78
2022-08-27T07:11:38.215Z,24.95
2022-08-27T07:14:07.313Z,25.03
2022-08-27T07:16:34.982Z,25.20
2022-08-27T07:19:04.465Z,25.27
2022-08-27T07:21:33.223Z,25.40
2022-08-27T07:24:04.732Z,25.48
2022-08-27T07:26:34.744Z,25.70
2022-08-27T07:29:02.669Z,25.88
2022-08-27T07:31:29.535Z,26.00
2022-08-27T07:33:56.317Z,25.96
2022-08-27T07:36:24.004Z,26.01
2022-08-27T07:38:57.066Z,26.05
2022-08-27T07:41:30.853Z,26.03
2022-08-27T07:44:26.258Z,25.98
2022-08-27T07:46:56.496Z,25.91
2022-08-27T07:49:27.795Z,26.14
2022-08-27T07:51:54.773Z,26.46
2022-08-27T07:54:23.211Z,26.74
2022-08-27T07:56:55.350Z,26.90
2022-08-27T07:59:24.886Z,27.05
2022-08-27T08:01:52.440Z,27.20
2022-08-27T08:04:20.418Z,27.28
2022-08-27T08:06:48.164Z,27.50
2022-08-27T08:09:15.609Z,27.72
2022-08-27T08:11:43.492Z,27.94
2022-08-27T08:14:10.903Z,28.05
2022-08-27T08:16:37.696Z,27.98
2022-08-27T08:19:04.550Z,28.07
2022-08-27T08:21:31.679Z,28.24
2022-08-27T08:23:58.732Z,28.45
2022-08-27T08:26:25.679Z,28.67
2022-08-27T08:28:52.735Z,28.74
2022-08-27T08:31:20.137Z,28.81
2022-08-27T08:33:49.875Z,28.92
2022-08-27T08:36:17.984Z,29.08
2022-08-27T08:38:46.295Z,29.27
2022-08-27T08:41:28.152Z,29.36
2022-08-27T08:44:04.804Z,29.50
2022-08-27T08:46:52.462Z,29.70
2022-08-27T08:49:55.049Z,29.78
2022-08-27T08:52:34.670Z,30.11
2022-08-27T08:55:19.780Z,30.00
2022-08-27T08:57:54.343Z,30.19
2022-08-27T09:00:21.400Z,30.45
2022-08-27T09:02:54.562Z,30.51
2022-08-27T09:05:27.432Z,30.75
2022-08-27T09:08:37.682Z,30.80
2022-08-27T09:11:17.668Z,30.80
2022-08-27T09:14:19.334Z,31.25
2022-08-27T09:16:46.097Z,31.39
2022-08-27T09:19:13.447Z,31.50
2022-08-27T09:21:43.475Z,31.58
2022-08-27T09:24:37.138Z,31.82
2022-08-27T09:27:04.825Z,31.94
2022-08-27T09:29:31.851Z,31.98
2022-08-27T09:32:05.424Z,32.29
2022-08-27T09:34:42.415Z,31.92
2022-08-27T09:37:33.841Z,31.98
2022-08-27T09:40:13.760Z,32.35
2022-08-27T09:42:56.790Z,32.54
2022-08-27T09:45:30.084Z,32.84
2022-08-27T09:48:14.979Z,33.04
2022-08-27T09:50:47.993Z,32.54
2022-08-27T09:53:29.487Z,33.03
2022-08-27T09:56:02.138Z,33.20
2022-08-27T09:58:34.391Z,33.26
2022-08-27T10:01:19.590Z,33.23
2022-08-27T10:03:46.743Z,33.45
2022-08-27T10:06:14.260Z,33.33
2022-08-27T10:08:50.517Z,33.27
2022-08-27T10:11:23.616Z,33.44
2022-08-27T10:13:59.345Z,33.86
2022-08-27T10:16:53.459Z,33.70
2022-08-27T10:19:43.673Z,33.92
2022-08-27T10:22:28.592Z,34.30
2022-08-27T10:25:30.324Z,34.30
2022-08-27T10:28:31.891Z,34.50
2022-08-27T10:31:17.152Z,34.57
2022-08-27T10:34:03.834Z,34.47
2022-08-27T10:36:51.208Z,34.60
2022-08-27T10:39:42.660Z,34.78
2022-08-27T10:42:21.649Z,35.16
2022-08-27T10:45:01.554Z,35.40
2022-08-27T10:47:46.994Z,35.01
2022-08-27T10:50:28.458Z,35.31
2022-08-27T10:53:10.500Z,35.70
2022-08-27T10:55:43.210Z,35.76
2022-08-27T10:58:37.514Z,35.73
2022-08-27T11:01:39.903Z,35.15
2022-08-27T11:04:13.124Z,35.62
2022-08-27T11:06:48.524Z,35.95
2022-08-27T11:09:26.516Z,36.08
2022-08-27T11:12:15.317Z,36.09
2022-08-27T11:14:57.252Z,36.54
2022-08-27T11:17:37.838Z,36.50
2022-08-27T11:20:24.331Z,36.71
2022-08-27T11:22:56.887Z,36.90
2022-08-27T11:25:58.315Z,36.94
2022-08-27T11:28:45.919Z,37.10
2022-08-27T11:31:31.979Z,37.35
2022-08-27T11:34:06.803Z,37.41
2022-08-27T11:37:10.157Z,37.44
2022-08-27T11:39:55.221Z,37.26
2022-08-27T11:42:50.112Z,37.15
2022-08-27T11:45:38.587Z,37.41
2022-08-27T11:48:24.488Z,37.81
2022-08-27T11:51:01.218Z,38.07
2022-08-27T11:53:34.631Z,38.08
2022-08-27T11:56:38.767Z,38.06
2022-08-27T11:59:27.934Z,38.24
2022-08-27T12:01:59.011Z,38.52
2022-08-27T12:04:32.049Z,38.52
2022-08-27T12:07:14.328Z,38.84
2022-08-27T12:09:46.768Z,38.78
2022-08-27T12:12:25.524Z,38.84
2022-08-27T12:15:08.392Z,38.86
2022-08-27T12:17:52.099Z,39.08
2022-08-27T12:20:24.146Z,38.90
2022-08-27T12:23:26.071Z,38.87
2022-08-27T12:26:12.551Z,39.25
2022-08-27T12:28:39.600Z,38.95
2022-08-27T12:31:06.797Z,38.63
2022-08-27T12:33:39.479Z,38.91
2022-08-27T12:36:13.972Z,39.29
2022-08-27T12:38:50.452Z,39.64
2022-08-27T12:41:32.513Z,39.17
2022-08-27T12:44:14.730Z,39.64
2022-08-27T12:46:49.932Z,39.69
2022-08-27T12:49:38.349Z,39.65
2022-08-27T12:52:26.354Z,40.32
2022-08-27T12:55:11.867Z,40.56
2022-08-27T12:57:59.980Z,40.79
2022-08-27T13:00:37.837Z,40.77
2022-08-27T13:03:43.122Z,40.21
2022-08-27T13:06:29.184Z,40.15
2022-08-27T13:09:00.043Z,40.03
2022-08-27T13:11:30.794Z,39.29
2022-08-27T13:14:33.339Z,39.83
2022-08-27T13:17:07.097Z,40.08
2022-08-27T13:19:36.604Z,41.18
2022-08-27T13:22:07.175Z,41.07
2022-08-27T13:24:36.626Z,40.17
2022-08-27T13:27:05.564Z,40.12
2022-08-27T13:29:33.002Z,40.65
2022-08-27T13:32:00.865Z,40.93
2022-08-27T13:34:33.212Z,41.79
2022-08-27T13:37:06.358Z,42.28
2022-08-27T13:39:34.778Z,42.50
2022-08-27T13:42:04.633Z,43.43
2022-08-27T13:44:37.584Z,42.95
2022-08-27T13:47:07.919Z,41.35
2022-08-27T13:49:39.982Z,41.88
2022-08-27T13:52:18.699Z,43.36
2022-08-27T13:54:50.339Z,44.81
2022-08-27T13:57:28.296Z,44.98
2022-08-27T13:59:55.098Z,44.55
2022-08-27T14:02:32.386Z,43.82
2022-08-27T14:05:28.023Z,44.47
2022-08-27T14:07:58.244Z,45.04
2022-08-27T14:10:36.676Z,44.95
2022-08-27T14:13:08.326Z,45.60
2022-08-27T14:15:45.496Z,46.02
2022-08-27T14:18:48.436Z,46.54
2022-08-27T14:21:18.737Z,46.57
2022-08-27T14:23:46.021Z,46.06
2022-08-27T14:26:13.566Z,45.60
2022-08-27T14:28:40.337Z,44.84
2022-08-27T14:31:07.402Z,45.88
2022-08-27T14:33:34.163Z,46.71
2022-08-27T14:36:00.995Z,45.93
2022-08-27T14:38:31.673Z,46.26
2022-08-27T14:41:00.930Z,47.01
2022-08-27T14:43:27.814Z,46.58
2022-08-27T14:45:55.332Z,46.59
2022-08-27T14:48:29.035Z,46.29
2022-08-27T14:50:57.459Z,45.88
2022-08-27T14:53:24.713Z,45.71
2022-08-27T14:55:52.172Z,44.98
2022-08-27T14:58:19.688Z,44.59
2022-08-27T15:00:46.786Z,42.27
2022-08-27T15:03:13.760Z,43.68
2022-08-27T15:05:45.008Z,42.90
2022-08-27T15:08:15.854Z,42.67
2022-08-27T15:10:42.975Z,43.04
2022-08-27T15:13:11.459Z,43.66
2022-08-27T15:15:38.975Z,42.90
2022-08-27T15:18:06.329Z,44.17
2022-08-27T15:20:33.611Z,45.09
2022-08-27T15:23:01.208Z,44.42
2022-08-27T15:25:29.289Z,44.44
2022-08-27T15:27:56.758Z,45.01
2022-08-27T15:30:27.227Z,44.88
2022-08-27T15:32:54.535Z,44.42
2022-08-27T15:35:26.565Z,42.00
2022-08-27T15:37:56.805Z,41.24
2022-08-27T15:40:25.936Z,41.78
2022-08-27T15:42:57.308Z,41.23
2022-08-27T15:45:27.506Z,41.03
2022-08-27T15:47:55.758Z,40.05
2022-08-27T15:50:22.618Z,39.44
2022-08-27T15:52:54.496Z,38.48
2022-08-27T15:55:24.089Z,39.11
2022-08-27T15:57:56.125Z,37.61
2022-08-27T16:00:24.281Z,36.91
2022-08-27T16:02:52.179Z,36.19
2022-08-27T16:05:20.526Z,35.96
2022-08-27T16:07:47.838Z,35.29
2022-08-27T16:10:15.231Z,34.75
2022-08-27T16:12:42.218Z,34.16
2022-08-27T16:15:09.319Z,34.00
2022-08-27T16:17:36.741Z,33.67
2022-08-27T16:20:05.766Z,33.67
2022-08-27T16:22:34.797Z,33.27
2022-08-27T16:25:02.335Z,32.94
2022-08-27T16:27:29.380Z,32.77
2022-08-27T16:29:56.532Z,32.63
2022-08-27T16:32:23.823Z,32.80
2022-08-27T16:34:55.728Z,32.23
2022-08-27T16:37:26.163Z,32.09
2022-08-27T16:39:53.514Z,32.01
2022-08-27T16:42:21.417Z,31.69
2022-08-27T16:44:48.248Z,31.85
2022-08-27T16:47:15.194Z,31.32
2022-08-27T16:50:00.563Z,31.12
2022-08-27T16:52:28.168Z,30.97
2022-08-27T16:54:56.827Z,30.66
2022-08-27T16:57:23.884Z,30.83
2022-08-27T16:59:51.172Z,30.33
2022-08-27T17:02:30.697Z,30.39
2022-08-27T17:05:12.160Z,30.20
2022-08-27T17:07:50.152Z,30.09
2022-08-27T17:10:18.815Z,30.06
2022-08-27T17:12:47.134Z,29.93
2022-08-27T17:15:18.212Z,29.79
2022-08-27T17:17:45.997Z,29.63
2022-08-27T17:20:15.179Z,29.65
2022-08-27T17:22:42.755Z,29.46
2022-08-27T17:25:10.398Z,29.47
2022-08-27T17:27:37.176Z,29.37
2022-08-27T17:30:05.222Z,29.21
2022-08-27T17:32:37.351Z,29.19
2022-08-27T17:35:06.933Z,29.16
2022-08-27T17:37:34.569Z,28.98
2022-08-27T17:40:01.528Z,28.93
2022-08-27T17:42:29.552Z,28.90
2022-08-27T17:44:57.084Z,28.85
2022-08-27T17:47:24.980Z,28.66
2022-08-27T17:49:53.749Z,28.69
2022-08-27T17:52:20.895Z,28.69
2022-08-27T17:54:51.178Z,28.74
2022-08-27T17:57:22.641Z,28.57
2022-08-27T17:59:50.283Z,28.38
2022-08-27T18:02:37.178Z,28.30
2022-08-27T18:05:05.702Z,28.09
2022-08-27T18:07:35.632Z,28.01
2022-08-27T18:10:05.241Z,28.14
2022-08-27T18:12:32.385Z,27.94
2022-08-27T18:15:08.344Z,28.00
2022-08-27T18:17:36.007Z,28.02
2022-08-27T18:20:07.892Z,27.93
2022-08-27T18:22:38.826Z,27.82
2022-08-27T18:25:19.871Z,27.75
2022-08-27T18:27:53.020Z,27.77
2022-08-27T18:30:34.762Z,27.43
2022-08-27T18:33:04.628Z,27.47
2022-08-27T18:35:33.539Z,27.32
2022-08-27T18:38:00.748Z,27.19
2022-08-27T18:40:31.886Z,27.25
2022-08-27T18:42:59.007Z,27.06
2022-08-27T18:45:28.634Z,26.89
2022-08-27T18:47:57.655Z,26.85
2022-08-27T18:50:25.507Z,26.96
2022-08-27T18:52:54.243Z,26.78
2022-08-27T18:55:25.715Z,26.88
2022-08-27T18:57:52.960Z,26.69
2022-08-27T19:00:20.666Z,26.60
2022-08-27T19:02:52.722Z,26.65
2022-08-27T19:05:26.590Z,26.70
2022-08-27T19:07:54.567Z,26.58
2022-08-27T19:10:21.883Z,26.53
2022-08-27T19:12:48.905Z,26.33
2022-08-27T19:15:16.733Z,26.36
2022-08-27T19:17:46.995Z,26.32
2022-08-27T19:20:15.883Z,26.18
2022-08-27T19:22:42.772Z,26.28
2022-08-27T19:25:13.130Z,26.16
2022-08-27T19:27:40.441Z,26.12
2022-08-27T19:30:08.168Z,26.08
2022-08-27T19:32:35.263Z,26.13
2022-08-27T19:35:02.007Z,26.06
2022-08-27T19:37:30.749Z,25.97
2022-08-27T19:40:01.056Z,25.99
2022-08-27T19:42:29.368Z,25.93
2022-08-27T19:44:56.755Z,25.89
2022-08-27T19:47:25.966Z,25.85
2022-08-27T19:49:54.136Z,25.74
2022-08-27T19:52:21.232Z,25.75
2022-08-27T19:55:10.100Z,25.74
2022-08-27T19:57:35.474Z,25.62
2022-08-27T20:00:03.755Z,25.63
2022-08-27T20:02:30.584Z,25.60
2022-08-27T20:05:16.904Z,25.69
